BEL771 EBBR-EGPH
Flight info
| Callsign | BEL771 |
|---|---|
| Flight time | 1h 17m |
| Altitude | 34000 |
| Route | DENUT L610 NILON DCT WESUL M14 STOAT L613 LEHOC DCT INPIP N601 TLA |
| Aircraft | A320/M-DE3FGHIJ1LORVWY/H |
Departure
| Time | 2026-04-25 06:11 |
|---|---|
| Airport | Brussels Airport (EBBR) |
Arrival
| Time | 2026-04-25 07:28 |
|---|---|
| Airport | Edinburgh Airport (EGPH) |
| Time | Latitude | Longitude | Altitude | Speed | Heading |
|---|---|---|---|---|---|
| 2026-04-25 05:30 | 50.90388 | 4.48541 | 120 ft | 0 kts | 155° |
| 2026-04-25 05:55 | 50.90401 | 4.48532 | 116 ft | 4 kts | 155° |
| 2026-04-25 05:56 | 50.90424 | 4.48512 | 116 ft | 4 kts | 132° |
| 2026-04-25 05:56 | 50.90431 | 4.48489 | 118 ft | 1 kts | 65° |
| 2026-04-25 05:56 | 50.90431 | 4.48488 | 118 ft | 0 kts | 65° |
| 2026-04-25 06:06 | 50.90444 | 4.48522 | 119 ft | 7 kts | 47° |
| 2026-04-25 06:06 | 50.90481 | 4.48552 | 119 ft | 6 kts | 24° |
| 2026-04-25 06:06 | 50.90518 | 4.48630 | 120 ft | 13 kts | 65° |
| 2026-04-25 06:06 | 50.90557 | 4.48765 | 118 ft | 14 kts | 65° |
| 2026-04-25 06:07 | 50.90599 | 4.48911 | 119 ft | 15 kts | 65° |
| 2026-04-25 06:07 | 50.90645 | 4.49072 | 120 ft | 17 kts | 65° |
| 2026-04-25 06:07 | 50.90695 | 4.49245 | 121 ft | 18 kts | 65° |
| 2026-04-25 06:07 | 50.90747 | 4.49426 | 121 ft | 19 kts | 66° |
| 2026-04-25 06:08 | 50.90802 | 4.49616 | 123 ft | 20 kts | 65° |
| 2026-04-25 06:08 | 50.90850 | 4.49751 | 124 ft | 7 kts | 27° |
| 2026-04-25 06:08 | 50.90893 | 4.49772 | 121 ft | 6 kts | 17° |
| 2026-04-25 06:08 | 50.90928 | 4.49793 | 120 ft | 5 kts | 28° |
| 2026-04-25 06:09 | 50.90969 | 4.49844 | 120 ft | 13 kts | 39° |
| 2026-04-25 06:09 | 50.91058 | 4.49925 | 116 ft | 12 kts | 24° |
| 2026-04-25 06:09 | 50.91108 | 4.49946 | 118 ft | 9 kts | 354° |
| 2026-04-25 06:09 | 50.91136 | 4.49878 | 119 ft | 7 kts | 261° |
| 2026-04-25 06:10 | 50.91127 | 4.49849 | 117 ft | 1 kts | 245° |
| 2026-04-25 06:10 | 50.91065 | 4.49639 | 117 ft | 55 kts | 245° |
| 2026-04-25 06:10 | 50.90807 | 4.48743 | 119 ft | 120 kts | 245° |
| 2026-04-25 06:10 | 50.90389 | 4.47279 | 140 ft | 168 kts | 248° |
| 2026-04-25 06:11 | 50.89957 | 4.45530 | 675 ft | 171 kts | 248° |
| 2026-04-25 06:11 | 50.89718 | 4.43699 | 1381 ft | 171 kts | 278° |
| 2026-04-25 06:11 | 50.90109 | 4.41952 | 2021 ft | 171 kts | 301° |
| 2026-04-25 06:11 | 50.90716 | 4.40199 | 2327 ft | 194 kts | 301° |
| 2026-04-25 06:12 | 50.91395 | 4.38202 | 2651 ft | 218 kts | 296° |
| 2026-04-25 06:12 | 50.91783 | 4.35735 | 3025 ft | 244 kts | 280° |
| 2026-04-25 06:12 | 50.92046 | 4.32970 | 3615 ft | 259 kts | 280° |
| 2026-04-25 06:12 | 50.92328 | 4.30121 | 4474 ft | 263 kts | 284° |
| 2026-04-25 06:13 | 50.93038 | 4.27453 | 5350 ft | 265 kts | 306° |
| 2026-04-25 06:13 | 50.94170 | 4.25136 | 6248 ft | 267 kts | 309° |
| 2026-04-25 06:13 | 50.95333 | 4.22828 | 7107 ft | 269 kts | 309° |
| 2026-04-25 06:14 | 50.97698 | 4.18133 | 8784 ft | 275 kts | 309° |
| 2026-04-25 06:14 | 50.98894 | 4.15747 | 9623 ft | 278 kts | 308° |
| 2026-04-25 06:14 | 51.00102 | 4.13331 | 10411 ft | 281 kts | 308° |
| 2026-04-25 06:14 | 51.01362 | 4.10810 | 10719 ft | 303 kts | 308° |
| 2026-04-25 06:15 | 51.02718 | 4.08093 | 10980 ft | 323 kts | 308° |
| 2026-04-25 06:15 | 51.04130 | 4.05255 | 11577 ft | 331 kts | 308° |
| 2026-04-25 06:15 | 51.05562 | 4.02367 | 12302 ft | 334 kts | 308° |
| 2026-04-25 06:15 | 51.07008 | 3.99453 | 13029 ft | 337 kts | 308° |
| 2026-04-25 06:16 | 51.08466 | 3.96516 | 13762 ft | 340 kts | 308° |
| 2026-04-25 06:16 | 51.09937 | 3.93547 | 14414 ft | 343 kts | 308° |
| 2026-04-25 06:16 | 51.11420 | 3.90549 | 15034 ft | 346 kts | 308° |
| 2026-04-25 06:16 | 51.12918 | 3.87519 | 15651 ft | 350 kts | 308° |
| 2026-04-25 06:17 | 51.14428 | 3.84459 | 16261 ft | 353 kts | 308° |
| 2026-04-25 06:17 | 51.15951 | 3.81369 | 16864 ft | 356 kts | 308° |
| 2026-04-25 06:17 | 51.17486 | 3.78246 | 17464 ft | 360 kts | 308° |
| 2026-04-25 06:17 | 51.19032 | 3.75096 | 18076 ft | 363 kts | 308° |
| 2026-04-25 06:18 | 51.20594 | 3.71913 | 18658 ft | 366 kts | 308° |
| 2026-04-25 06:18 | 51.22150 | 3.68697 | 19213 ft | 367 kts | 305° |
| 2026-04-25 06:18 | 51.23410 | 3.65148 | 19801 ft | 369 kts | 294° |
| 2026-04-25 06:18 | 51.24218 | 3.61266 | 20403 ft | 371 kts | 284° |
| 2026-04-25 06:19 | 51.24751 | 3.57237 | 21005 ft | 371 kts | 283° |
| 2026-04-25 06:19 | 51.25284 | 3.53199 | 21597 ft | 372 kts | 283° |
| 2026-04-25 06:19 | 51.25819 | 3.49153 | 22195 ft | 373 kts | 284° |
| 2026-04-25 06:19 | 51.26355 | 3.45097 | 22769 ft | 374 kts | 284° |
| 2026-04-25 06:20 | 51.26892 | 3.41027 | 23322 ft | 375 kts | 284° |
| 2026-04-25 06:20 | 51.27428 | 3.36948 | 23840 ft | 376 kts | 284° |
| 2026-04-25 06:20 | 51.27960 | 3.32849 | 24258 ft | 378 kts | 284° |
| 2026-04-25 06:20 | 51.28490 | 3.28726 | 24661 ft | 380 kts | 284° |
| 2026-04-25 06:21 | 51.29021 | 3.24582 | 25041 ft | 382 kts | 284° |
| 2026-04-25 06:21 | 51.29557 | 3.20398 | 25369 ft | 386 kts | 284° |
| 2026-04-25 06:21 | 51.30097 | 3.16176 | 25688 ft | 390 kts | 284° |
| 2026-04-25 06:21 | 51.30638 | 3.11916 | 26036 ft | 392 kts | 283° |
| 2026-04-25 06:22 | 51.31179 | 3.07638 | 26402 ft | 394 kts | 283° |
| 2026-04-25 06:22 | 51.31547 | 3.04734 | 26648 ft | 395 kts | 283° |
| 2026-04-25 06:22 | 51.32090 | 3.00421 | 27005 ft | 397 kts | 283° |
| 2026-04-25 06:22 | 51.32636 | 2.96088 | 27355 ft | 399 kts | 283° |
| 2026-04-25 06:23 | 51.33181 | 2.91735 | 27698 ft | 400 kts | 283° |
| 2026-04-25 06:23 | 51.33727 | 2.87359 | 28040 ft | 402 kts | 283° |
| 2026-04-25 06:23 | 51.34273 | 2.82965 | 28359 ft | 404 kts | 283° |
| 2026-04-25 06:23 | 51.34817 | 2.78552 | 28687 ft | 405 kts | 283° |
| 2026-04-25 06:24 | 51.35363 | 2.74116 | 29004 ft | 407 kts | 283° |
| 2026-04-25 06:24 | 51.35911 | 2.69664 | 29302 ft | 409 kts | 283° |
| 2026-04-25 06:24 | 51.36464 | 2.65193 | 29591 ft | 411 kts | 283° |
| 2026-04-25 06:24 | 51.37021 | 2.60697 | 29877 ft | 412 kts | 283° |
| 2026-04-25 06:25 | 51.37579 | 2.56186 | 30154 ft | 414 kts | 283° |
| 2026-04-25 06:25 | 51.38137 | 2.51653 | 30394 ft | 416 kts | 283° |
| 2026-04-25 06:25 | 51.38694 | 2.47105 | 30603 ft | 418 kts | 283° |
| 2026-04-25 06:25 | 51.39251 | 2.42530 | 30804 ft | 420 kts | 282° |
| 2026-04-25 06:26 | 51.39807 | 2.37936 | 30990 ft | 422 kts | 282° |
| 2026-04-25 06:26 | 51.40362 | 2.33309 | 31135 ft | 425 kts | 282° |
| 2026-04-25 06:26 | 51.40915 | 2.28654 | 31369 ft | 425 kts | 282° |
| 2026-04-25 06:26 | 51.41465 | 2.24006 | 31639 ft | 425 kts | 282° |
| 2026-04-25 06:27 | 51.42025 | 2.19358 | 31900 ft | 425 kts | 282° |
| 2026-04-25 06:27 | 51.42595 | 2.14719 | 32161 ft | 425 kts | 282° |
| 2026-04-25 06:27 | 51.43166 | 2.10074 | 32433 ft | 424 kts | 282° |
| 2026-04-25 06:27 | 51.43730 | 2.05436 | 32703 ft | 424 kts | 282° |
| 2026-04-25 06:28 | 51.44292 | 2.00794 | 32973 ft | 424 kts | 282° |
| 2026-04-25 06:28 | 51.44849 | 1.96159 | 33245 ft | 424 kts | 282° |
| 2026-04-25 06:28 | 51.45398 | 1.91521 | 33510 ft | 423 kts | 281° |
| 2026-04-25 06:28 | 51.45942 | 1.86881 | 33768 ft | 424 kts | 281° |
| 2026-04-25 06:29 | 51.46483 | 1.82242 | 34040 ft | 423 kts | 281° |
| 2026-04-25 06:29 | 51.47021 | 1.77595 | 34194 ft | 423 kts | 281° |
| 2026-04-25 06:29 | 51.47552 | 1.72983 | 34225 ft | 419 kts | 281° |
| 2026-04-25 06:30 | 51.48598 | 1.63820 | 34226 ft | 417 kts | 281° |
| 2026-04-25 06:30 | 51.49643 | 1.54679 | 34228 ft | 416 kts | 281° |
| 2026-04-25 06:31 | 51.50675 | 1.45537 | 34231 ft | 416 kts | 280° |
| 2026-04-25 06:31 | 51.51706 | 1.36370 | 34228 ft | 418 kts | 280° |
| 2026-04-25 06:32 | 51.52733 | 1.27187 | 34231 ft | 418 kts | 280° |
| 2026-04-25 06:32 | 51.53749 | 1.17999 | 34229 ft | 418 kts | 280° |
| 2026-04-25 06:33 | 51.54754 | 1.08807 | 34222 ft | 418 kts | 279° |
| 2026-04-25 06:33 | 51.55755 | 0.99618 | 34222 ft | 418 kts | 279° |
| 2026-04-25 06:34 | 51.56756 | 0.90422 | 34233 ft | 418 kts | 279° |
| 2026-04-25 06:34 | 51.57740 | 0.81208 | 34235 ft | 419 kts | 279° |
| 2026-04-25 06:35 | 51.58715 | 0.71974 | 34234 ft | 419 kts | 279° |
| 2026-04-25 06:35 | 51.60405 | 0.63022 | 34236 ft | 421 kts | 296° |
| 2026-04-25 06:36 | 51.63748 | 0.55278 | 34237 ft | 424 kts | 307° |
| 2026-04-25 06:36 | 51.67549 | 0.48021 | 34224 ft | 425 kts | 313° |
| 2026-04-25 06:37 | 51.71996 | 0.41674 | 34220 ft | 428 kts | 316° |
| 2026-04-25 06:37 | 51.76470 | 0.35341 | 34226 ft | 428 kts | 316° |
| 2026-04-25 06:38 | 51.80947 | 0.28965 | 34243 ft | 429 kts | 316° |
| 2026-04-25 06:38 | 51.85425 | 0.22576 | 34242 ft | 430 kts | 316° |
| 2026-04-25 06:39 | 51.89907 | 0.16163 | 34244 ft | 430 kts | 316° |
| 2026-04-25 06:39 | 51.94386 | 0.09746 | 34245 ft | 430 kts | 316° |
| 2026-04-25 06:40 | 51.98857 | 0.03310 | 34243 ft | 430 kts | 316° |
| 2026-04-25 06:40 | 52.03494 | -0.02824 | 34227 ft | 433 kts | 326° |
| 2026-04-25 06:41 | 52.08800 | -0.07536 | 34215 ft | 435 kts | 329° |
| 2026-04-25 06:41 | 52.14143 | -0.12195 | 34207 ft | 436 kts | 329° |
| 2026-04-25 06:42 | 52.19492 | -0.16880 | 34212 ft | 437 kts | 329° |
| 2026-04-25 06:42 | 52.24842 | -0.21591 | 34215 ft | 437 kts | 329° |
| 2026-04-25 06:43 | 52.30195 | -0.26324 | 34238 ft | 438 kts | 329° |
| 2026-04-25 06:43 | 52.35550 | -0.31072 | 34229 ft | 438 kts | 329° |
| 2026-04-25 06:44 | 52.40905 | -0.35830 | 34221 ft | 438 kts | 329° |
| 2026-04-25 06:44 | 52.46252 | -0.40591 | 34214 ft | 437 kts | 329° |
| 2026-04-25 06:45 | 52.51599 | -0.45365 | 34214 ft | 437 kts | 329° |
| 2026-04-25 06:45 | 52.56942 | -0.50149 | 34222 ft | 437 kts | 329° |
| 2026-04-25 06:46 | 52.62280 | -0.54954 | 34216 ft | 437 kts | 328° |
| 2026-04-25 06:46 | 52.67621 | -0.59768 | 34214 ft | 438 kts | 328° |
| 2026-04-25 06:47 | 52.72959 | -0.64590 | 34215 ft | 437 kts | 328° |
| 2026-04-25 06:47 | 52.78296 | -0.69419 | 34224 ft | 437 kts | 328° |
| 2026-04-25 06:48 | 52.83624 | -0.74253 | 34221 ft | 437 kts | 328° |
| 2026-04-25 06:48 | 52.88949 | -0.79102 | 34226 ft | 437 kts | 328° |
| 2026-04-25 06:49 | 52.94268 | -0.83962 | 34221 ft | 436 kts | 328° |
| 2026-04-25 06:49 | 52.99578 | -0.88839 | 34218 ft | 436 kts | 328° |
| 2026-04-25 06:50 | 53.04884 | -0.93714 | 34229 ft | 436 kts | 328° |
| 2026-04-25 06:50 | 53.10182 | -0.98583 | 34224 ft | 435 kts | 328° |
| 2026-04-25 06:51 | 53.15474 | -1.03469 | 34214 ft | 435 kts | 328° |
| 2026-04-25 06:51 | 53.20773 | -1.08382 | 34197 ft | 436 kts | 328° |
| 2026-04-25 06:52 | 53.26082 | -1.13313 | 34201 ft | 437 kts | 328° |
| 2026-04-25 06:52 | 53.31397 | -1.18259 | 34204 ft | 437 kts | 328° |
| 2026-04-25 06:53 | 53.36710 | -1.23217 | 34209 ft | 437 kts | 328° |
| 2026-04-25 06:53 | 53.42015 | -1.28193 | 34207 ft | 437 kts | 328° |
| 2026-04-25 06:54 | 53.47317 | -1.33185 | 34204 ft | 436 kts | 328° |
| 2026-04-25 06:54 | 53.52608 | -1.38183 | 34201 ft | 436 kts | 328° |
| 2026-04-25 06:55 | 53.57897 | -1.43187 | 34195 ft | 436 kts | 328° |
| 2026-04-25 06:55 | 53.63182 | -1.48207 | 34199 ft | 436 kts | 328° |
| 2026-04-25 06:56 | 53.68471 | -1.53239 | 34207 ft | 437 kts | 328° |
| 2026-04-25 06:56 | 53.73673 | -1.58501 | 34205 ft | 435 kts | 320° |
| 2026-04-25 06:57 | 53.78183 | -1.65258 | 34199 ft | 433 kts | 315° |
| 2026-04-25 06:57 | 53.82653 | -1.72120 | 34199 ft | 434 kts | 315° |
| 2026-04-25 06:58 | 53.87138 | -1.78986 | 34200 ft | 435 kts | 315° |
| 2026-04-25 06:58 | 53.91615 | -1.85888 | 34200 ft | 435 kts | 315° |
| 2026-04-25 06:59 | 53.96082 | -1.92825 | 34196 ft | 435 kts | 315° |
| 2026-04-25 06:59 | 54.00548 | -1.99778 | 34213 ft | 435 kts | 316° |
| 2026-04-25 07:00 | 54.05571 | -2.05568 | 34213 ft | 438 kts | 327° |
| 2026-04-25 07:00 | 54.10833 | -2.10816 | 34213 ft | 438 kts | 327° |
| 2026-04-25 07:01 | 54.16092 | -2.16089 | 34194 ft | 439 kts | 327° |
| 2026-04-25 07:01 | 54.21374 | -2.21424 | 33903 ft | 443 kts | 327° |
| 2026-04-25 07:01 | 54.24023 | -2.24106 | 33637 ft | 442 kts | 327° |
| 2026-04-25 07:02 | 54.26668 | -2.26786 | 33370 ft | 441 kts | 327° |
| 2026-04-25 07:02 | 54.28419 | -2.28559 | 33186 ft | 441 kts | 327° |
| 2026-04-25 07:02 | 54.31058 | -2.31230 | 32922 ft | 440 kts | 327° |
| 2026-04-25 07:02 | 54.33684 | -2.33891 | 32655 ft | 438 kts | 327° |
| 2026-04-25 07:03 | 54.36300 | -2.36548 | 32390 ft | 436 kts | 327° |
| 2026-04-25 07:03 | 54.38895 | -2.39195 | 32012 ft | 432 kts | 327° |
| 2026-04-25 07:03 | 54.41464 | -2.41816 | 31490 ft | 427 kts | 327° |
| 2026-04-25 07:03 | 54.44009 | -2.44412 | 30969 ft | 423 kts | 327° |
| 2026-04-25 07:04 | 54.46525 | -2.46982 | 30467 ft | 419 kts | 327° |
| 2026-04-25 07:04 | 54.49020 | -2.49532 | 29955 ft | 415 kts | 327° |
| 2026-04-25 07:04 | 54.51482 | -2.52057 | 29412 ft | 410 kts | 327° |
| 2026-04-25 07:04 | 54.53922 | -2.54564 | 28848 ft | 406 kts | 327° |
| 2026-04-25 07:05 | 54.56336 | -2.57045 | 28315 ft | 403 kts | 327° |
| 2026-04-25 07:05 | 54.58730 | -2.59510 | 27779 ft | 399 kts | 327° |
| 2026-04-25 07:05 | 54.61105 | -2.61962 | 27255 ft | 396 kts | 327° |
| 2026-04-25 07:05 | 54.63456 | -2.64393 | 26747 ft | 393 kts | 327° |
| 2026-04-25 07:06 | 54.65791 | -2.66815 | 26244 ft | 390 kts | 327° |
| 2026-04-25 07:06 | 54.68108 | -2.69227 | 25759 ft | 387 kts | 327° |
| 2026-04-25 07:06 | 54.70410 | -2.71625 | 25216 ft | 387 kts | 327° |
| 2026-04-25 07:06 | 54.72714 | -2.74025 | 24721 ft | 386 kts | 328° |
| 2026-04-25 07:07 | 54.75002 | -2.76407 | 24291 ft | 382 kts | 328° |
| 2026-04-25 07:07 | 54.77274 | -2.78767 | 23852 ft | 380 kts | 328° |
| 2026-04-25 07:07 | 54.79532 | -2.81112 | 23343 ft | 377 kts | 328° |
| 2026-04-25 07:07 | 54.81772 | -2.83445 | 22840 ft | 374 kts | 328° |
| 2026-04-25 07:08 | 54.83994 | -2.85767 | 22349 ft | 372 kts | 328° |
| 2026-04-25 07:08 | 54.86202 | -2.88079 | 21886 ft | 369 kts | 328° |
| 2026-04-25 07:08 | 54.88454 | -2.90180 | 21419 ft | 367 kts | 336° |
| 2026-04-25 07:08 | 54.90803 | -2.91873 | 20955 ft | 365 kts | 336° |
| 2026-04-25 07:09 | 54.93139 | -2.93555 | 20500 ft | 362 kts | 336° |
| 2026-04-25 07:09 | 54.95460 | -2.95233 | 20054 ft | 360 kts | 336° |
| 2026-04-25 07:09 | 54.97765 | -2.96904 | 19632 ft | 358 kts | 336° |
| 2026-04-25 07:09 | 55.00051 | -2.98564 | 19245 ft | 354 kts | 336° |
| 2026-04-25 07:10 | 55.02314 | -3.00210 | 18842 ft | 351 kts | 336° |
| 2026-04-25 07:10 | 55.04564 | -3.01853 | 18424 ft | 349 kts | 336° |
| 2026-04-25 07:10 | 55.06797 | -3.03486 | 17966 ft | 347 kts | 336° |
| 2026-04-25 07:10 | 55.09016 | -3.05108 | 17526 ft | 344 kts | 336° |
| 2026-04-25 07:11 | 55.11219 | -3.06719 | 17096 ft | 342 kts | 336° |
| 2026-04-25 07:11 | 55.13406 | -3.08319 | 16679 ft | 340 kts | 336° |
| 2026-04-25 07:11 | 55.15578 | -3.09904 | 16273 ft | 337 kts | 337° |
| 2026-04-25 07:11 | 55.17737 | -3.11481 | 15879 ft | 335 kts | 336° |
| 2026-04-25 07:12 | 55.19879 | -3.13052 | 15492 ft | 333 kts | 336° |
| 2026-04-25 07:12 | 55.24122 | -3.16168 | 14748 ft | 328 kts | 336° |
| 2026-04-25 07:12 | 55.26202 | -3.17698 | 14544 ft | 320 kts | 336° |
| 2026-04-25 07:13 | 55.28220 | -3.19186 | 14422 ft | 309 kts | 336° |
| 2026-04-25 07:13 | 55.30154 | -3.20681 | 14221 ft | 298 kts | 331° |
| 2026-04-25 07:13 | 55.31942 | -3.22474 | 13612 ft | 294 kts | 329° |
| 2026-04-25 07:13 | 55.33709 | -3.24286 | 13142 ft | 294 kts | 329° |
| 2026-04-25 07:14 | 55.35464 | -3.26097 | 12799 ft | 291 kts | 329° |
| 2026-04-25 07:14 | 55.37208 | -3.27897 | 12454 ft | 290 kts | 329° |
| 2026-04-25 07:14 | 55.38943 | -3.29689 | 12105 ft | 288 kts | 329° |
| 2026-04-25 07:14 | 55.40667 | -3.31471 | 11751 ft | 286 kts | 329° |
| 2026-04-25 07:15 | 55.42379 | -3.33237 | 11389 ft | 285 kts | 329° |
| 2026-04-25 07:15 | 55.44089 | -3.34999 | 11034 ft | 284 kts | 329° |
| 2026-04-25 07:15 | 55.45788 | -3.36754 | 10688 ft | 283 kts | 329° |
| 2026-04-25 07:15 | 55.47480 | -3.38499 | 10351 ft | 281 kts | 329° |
| 2026-04-25 07:16 | 55.49162 | -3.40236 | 10013 ft | 279 kts | 329° |
| 2026-04-25 07:16 | 55.50831 | -3.41965 | 9640 ft | 277 kts | 329° |
| 2026-04-25 07:16 | 55.52489 | -3.43689 | 9266 ft | 276 kts | 329° |
| 2026-04-25 07:16 | 55.54139 | -3.45405 | 8864 ft | 275 kts | 329° |
| 2026-04-25 07:17 | 55.55783 | -3.47111 | 8524 ft | 272 kts | 329° |
| 2026-04-25 07:17 | 55.57419 | -3.48809 | 8295 ft | 272 kts | 329° |
| 2026-04-25 07:17 | 55.59027 | -3.50483 | 8063 ft | 264 kts | 329° |
| 2026-04-25 07:17 | 55.60589 | -3.52110 | 7837 ft | 257 kts | 329° |
| 2026-04-25 07:18 | 55.62107 | -3.53687 | 7607 ft | 250 kts | 329° |
| 2026-04-25 07:18 | 55.63583 | -3.55221 | 7394 ft | 243 kts | 329° |
| 2026-04-25 07:18 | 55.64900 | -3.57022 | 7130 ft | 238 kts | 310° |
| 2026-04-25 07:18 | 55.65969 | -3.59228 | 6857 ft | 234 kts | 314° |
| 2026-04-25 07:19 | 55.67152 | -3.61188 | 6591 ft | 232 kts | 318° |
| 2026-04-25 07:19 | 55.68366 | -3.63036 | 6317 ft | 229 kts | 319° |
| 2026-04-25 07:19 | 55.69582 | -3.64832 | 6041 ft | 226 kts | 320° |
| 2026-04-25 07:19 | 55.70804 | -3.66543 | 5808 ft | 223 kts | 321° |
| 2026-04-25 07:20 | 55.72021 | -3.68233 | 5584 ft | 221 kts | 321° |
| 2026-04-25 07:20 | 55.73227 | -3.69922 | 5367 ft | 220 kts | 320° |
| 2026-04-25 07:20 | 55.74418 | -3.71605 | 5171 ft | 219 kts | 320° |
| 2026-04-25 07:20 | 55.75581 | -3.73282 | 5002 ft | 212 kts | 317° |
| 2026-04-25 07:21 | 55.76642 | -3.75041 | 4807 ft | 205 kts | 314° |
| 2026-04-25 07:21 | 55.77634 | -3.76800 | 4689 ft | 197 kts | 316° |
| 2026-04-25 07:21 | 55.78817 | -3.77989 | 4565 ft | 198 kts | 343° |
| 2026-04-25 07:21 | 55.80190 | -3.77997 | 4425 ft | 201 kts | 13° |
| 2026-04-25 07:22 | 55.81405 | -3.76758 | 4296 ft | 206 kts | 43° |
| 2026-04-25 07:22 | 55.82208 | -3.74696 | 4184 ft | 198 kts | 57° |
| 2026-04-25 07:22 | 55.82909 | -3.72634 | 4078 ft | 193 kts | 57° |
| 2026-04-25 07:22 | 55.83608 | -3.70592 | 4005 ft | 193 kts | 57° |
| 2026-04-25 07:23 | 55.84309 | -3.68550 | 3956 ft | 193 kts | 57° |
| 2026-04-25 07:23 | 55.85011 | -3.66508 | 3762 ft | 192 kts | 57° |
| 2026-04-25 07:23 | 55.85707 | -3.64480 | 3528 ft | 192 kts | 57° |
| 2026-04-25 07:23 | 55.86400 | -3.62458 | 3270 ft | 191 kts | 57° |
| 2026-04-25 07:24 | 55.87089 | -3.60450 | 3015 ft | 189 kts | 58° |
| 2026-04-25 07:24 | 55.87755 | -3.58503 | 2766 ft | 178 kts | 58° |
| 2026-04-25 07:24 | 55.88368 | -3.56714 | 2546 ft | 161 kts | 58° |
| 2026-04-25 07:24 | 55.88930 | -3.55070 | 2324 ft | 152 kts | 59° |
| 2026-04-25 07:25 | 55.89469 | -3.53493 | 2123 ft | 146 kts | 59° |
| 2026-04-25 07:25 | 55.89994 | -3.51956 | 1922 ft | 144 kts | 59° |
| 2026-04-25 07:25 | 55.90511 | -3.50440 | 1721 ft | 142 kts | 59° |
| 2026-04-25 07:25 | 55.91023 | -3.48940 | 1526 ft | 140 kts | 60° |
| 2026-04-25 07:26 | 55.91524 | -3.47469 | 1332 ft | 140 kts | 59° |
| 2026-04-25 07:26 | 55.92023 | -3.46005 | 1124 ft | 139 kts | 59° |
| 2026-04-25 07:26 | 55.92520 | -3.44546 | 926 ft | 137 kts | 59° |
| 2026-04-25 07:26 | 55.93011 | -3.43101 | 741 ft | 136 kts | 60° |
| 2026-04-25 07:27 | 55.93497 | -3.41676 | 553 ft | 133 kts | 60° |
| 2026-04-25 07:27 | 55.93980 | -3.40244 | 376 ft | 135 kts | 60° |
| 2026-04-25 07:27 | 55.94474 | -3.38820 | 198 ft | 135 kts | 60° |
| 2026-04-25 07:27 | 55.94942 | -3.37417 | 112 ft | 122 kts | 60° |
| 2026-04-25 07:28 | 55.95262 | -3.36464 | 110 ft | 52 kts | 58° |
| 2026-04-25 07:28 | 55.95432 | -3.35964 | 111 ft | 43 kts | 58° |
| 2026-04-25 07:28 | 55.95552 | -3.35623 | 113 ft | 22 kts | 58° |
| 2026-04-25 07:28 | 55.95562 | -3.35511 | 113 ft | 9 kts | 126° |
| 2026-04-25 07:29 | 55.95517 | -3.35454 | 115 ft | 6 kts | 148° |
| 2026-04-25 07:29 | 55.95488 | -3.35422 | 116 ft | 4 kts | 148° |
| 2026-04-25 07:29 | 55.95469 | -3.35401 | 113 ft | 5 kts | 151° |
| 2026-04-25 07:29 | 55.95427 | -3.35417 | 113 ft | 8 kts | 222° |
| 2026-04-25 07:30 | 55.95387 | -3.35526 | 115 ft | 12 kts | 238° |
| 2026-04-25 07:30 | 55.95346 | -3.35649 | 115 ft | 11 kts | 239° |
| 2026-04-25 07:30 | 55.95321 | -3.35726 | 115 ft | 7 kts | 239° |
| 2026-04-25 07:30 | 55.95300 | -3.35791 | 114 ft | 6 kts | 239° |
| 2026-04-25 07:31 | 55.95271 | -3.35876 | 114 ft | 11 kts | 239° |
| 2026-04-25 07:31 | 55.95234 | -3.35985 | 113 ft | 11 kts | 239° |
| 2026-04-25 07:31 | 55.95184 | -3.36132 | 116 ft | 16 kts | 239° |
| 2026-04-25 07:31 | 55.95129 | -3.36295 | 114 ft | 15 kts | 239° |
| 2026-04-25 07:32 | 55.95097 | -3.36387 | 115 ft | 7 kts | 230° |
| 2026-04-25 07:32 | 55.95056 | -3.36395 | 114 ft | 6 kts | 163° |
| 2026-04-25 07:32 | 55.95024 | -3.36389 | 115 ft | 5 kts | 195° |
| 2026-04-25 07:32 | 55.94995 | -3.36443 | 113 ft | 6 kts | 235° |
| 2026-04-25 07:33 | 55.94966 | -3.36476 | 114 ft | 5 kts | 171° |
| 2026-04-25 07:33 | 55.94932 | -3.36443 | 114 ft | 5 kts | 149° |
| 2026-04-25 07:33 | 55.94921 | -3.36430 | 115 ft | 0 kts | 149° |